Terminal Aerodrome Forecast
Issued by NWS

Home | Current Version | Previous Version | Text Only | Print | Product List | Glossary On
Versions: 1 2 3 4 5 6 7 8 9 10 11 12 13 14 15 16 17 18
000
FTUS41 KBTV 262338
TAFMPV
TAF
KMPV 262338Z 2700/2724 01006KT P6SM VCSH SCT012 OVC022
      TEMPO 2700/2704 3SM -RA BR BKN008 OVC012
     FM270600 VRB04KT 5SM BR SCT006 OVC010
     FM271300 35005KT P6SM SCT015 BKN025 OVC035
     FM271800 36006KT P6SM BKN045=

USA.gov is the U.S. government's official web portal to all federal, state and local government web resources and services.